Time;durP1;ratioP1;P1;durP2;ratioP2;P2;SDS_P1;SDS_P2;PMS_P1;PMS_P2;Temp;Humidity;BMP_temperature;BMP_pressure;BME280_temperature;BME280_humidity;BME280_pressure;Samples;Min_cycle;Max_cycle;Signal;HPM_P1;HPM_P2
2021/12/03 00:02:20;;;;;;;10.00;3.50;;;;;;;;;;4954326;28;20111;-66
2021/12/03 00:04:46;;;;;;;6.05;2.70;;;;;;;;;;4954081;28;20035;-73
2021/12/03 00:07:12;;;;;;;10.43;3.30;;;;;;;;;;4954327;28;20109;-63
2021/12/03 00:09:38;;;;;;;10.02;3.35;;;;;;;;;;4954068;28;20027;-73
2021/12/03 00:12:04;;;;;;;8.93;3.25;;;;;;;;;;4953966;28;20030;-69
2021/12/03 00:14:30;;;;;;;7.00;3.22;;;;;;;;;;4953986;28;20499;-75
2021/12/03 00:16:56;;;;;;;6.82;3.08;;;;;;;;;;4953736;28;20166;-75
2021/12/03 00:19:23;;;;;;;9.43;3.28;;;;;;;;;;4953748;28;20030;-74
2021/12/03 00:21:49;;;;;;;8.00;2.72;;;;;;;;;;4953406;28;20059;-74
2021/12/03 00:24:15;;;;;;;5.15;2.97;;;;;;;;;;4953658;28;20094;-63
2021/12/03 00:26:42;;;;;;;10.25;3.10;;;;;;;;;;4953498;28;20027;-74
2021/12/03 00:29:08;;;;;;;7.50;3.10;;;;;;;;;;4953628;28;20019;-68
2021/12/03 00:31:34;;;;;;;8.52;3.22;;;;;;;;;;4953251;28;20098;-73
2021/12/03 00:34:00;;;;;;;8.88;3.13;;;;;;;;;;4953758;28;20110;-67
2021/12/03 00:36:28;;;;;;;6.75;2.92;;;;;;;;;;4953628;28;20037;-76
2021/12/03 00:38:58;;;;;;;5.68;2.55;;;;;;;;;;4953412;28;20032;-75
2021/12/03 00:41:24;;;;;;;8.95;3.10;;;;;;;;;;4953284;28;20378;-74
2021/12/03 00:43:53;;;;;;;7.60;2.70;;;;;;;;;;4953708;28;20447;-75
2021/12/03 00:46:20;;;;;;;6.07;2.50;;;;;;;;;;4953360;28;20464;-74
2021/12/03 00:48:47;;;;;;;9.73;3.20;;;;;;;;;;4953161;28;20031;-75
2021/12/03 00:51:14;;;;;;;10.15;3.05;;;;;;;;;;4953226;28;20039;-73
2021/12/03 00:53:40;;;;;;;7.05;2.92;;;;;;;;;;4953191;28;20081;-73
2021/12/03 00:56:08;;;;;;;5.47;3.20;;;;;;;;;;4952490;28;20063;-74
2021/12/03 00:58:34;;;;;;;9.45;3.30;;;;;;;;;;4953259;28;20027;-73
2021/12/03 01:01:00;;;;;;;7.93;3.00;;;;;;;;;;4953407;28;20114;-69
2021/12/03 01:03:27;;;;;;;7.25;2.88;;;;;;;;;;4953447;28;20434;-72
2021/12/03 01:05:55;;;;;;;7.82;3.03;;;;;;;;;;4953267;28;20023;-73
2021/12/03 01:08:21;;;;;;;10.98;3.47;;;;;;;;;;4953102;29;20115;-74
2021/12/03 01:10:47;;;;;;;8.77;3.38;;;;;;;;;;4953067;28;20426;-73
2021/12/03 01:13:13;;;;;;;6.70;2.80;;;;;;;;;;4953232;28;20027;-76
2021/12/03 01:15:40;;;;;;;7.85;2.63;;;;;;;;;;4953287;28;20087;-74
2021/12/03 01:18:07;;;;;;;7.80;2.65;;;;;;;;;;4953108;28;20376;-75
2021/12/03 01:20:33;;;;;;;5.57;2.85;;;;;;;;;;4952838;28;20039;-74
2021/12/03 01:23:01;;;;;;;7.70;2.58;;;;;;;;;;4952894;28;20123;-73
2021/12/03 01:25:27;;;;;;;8.77;3.05;;;;;;;;;;4953015;28;20054;-68
2021/12/03 01:27:54;;;;;;;9.98;2.90;;;;;;;;;;4952831;28;20024;-73
2021/12/03 01:30:22;;;;;;;5.32;2.63;;;;;;;;;;4953096;28;20470;-75
2021/12/03 01:32:49;;;;;;;10.55;3.10;;;;;;;;;;4953045;28;20027;-72
2021/12/03 01:35:15;;;;;;;7.30;2.40;;;;;;;;;;4953108;28;20178;-74
2021/12/03 01:37:42;;;;;;;7.97;3.22;;;;;;;;;;4952908;28;20023;-73
2021/12/03 01:40:09;;;;;;;6.95;2.85;;;;;;;;;;4952874;28;20031;-74
2021/12/03 01:42:38;;;;;;;9.40;3.17;;;;;;;;;;4952785;28;20051;-75
2021/12/03 01:45:05;;;;;;;8.57;3.10;;;;;;;;;;4951256;28;20031;-73
2021/12/03 01:47:31;;;;;;;6.70;2.85;;;;;;;;;;4952788;28;20050;-72
2021/12/03 01:49:57;;;;;;;7.88;2.75;;;;;;;;;;4952432;28;20043;-72
2021/12/03 01:52:23;;;;;;;7.70;2.97;;;;;;;;;;4952644;28;20043;-73
2021/12/03 01:54:49;;;;;;;9.30;2.80;;;;;;;;;;4952497;28;20035;-73
2021/12/03 01:57:16;;;;;;;7.95;3.03;;;;;;;;;;4952495;28;20075;-73
2021/12/03 01:59:42;;;;;;;5.80;2.72;;;;;;;;;;4952489;28;20019;-73
2021/12/03 02:02:09;;;;;;;8.05;3.05;;;;;;;;;;4952521;28;20031;-74
2021/12/03 02:04:35;;;;;;;9.23;2.47;;;;;;;;;;4952423;28;20086;-73
2021/12/03 02:07:01;;;;;;;9.48;3.15;;;;;;;;;;4951491;29;20083;-72
2021/12/03 02:09:27;;;;;;;7.72;2.53;;;;;;;;;;4952361;28;20028;-70
2021/12/03 02:11:53;;;;;;;7.20;2.53;;;;;;;;;;4952463;28;20030;-64
2021/12/03 02:14:21;;;;;;;9.82;3.03;;;;;;;;;;4952491;28;20475;-73
2021/12/03 02:16:47;;;;;;;7.88;2.63;;;;;;;;;;4952684;28;20357;-70
2021/12/03 02:19:13;;;;;;;6.18;2.80;;;;;;;;;;4952451;28;20027;-72
2021/12/03 02:21:40;;;;;;;6.93;2.78;;;;;;;;;;4952405;28;20082;-72
2021/12/03 02:24:06;;;;;;;7.45;2.50;;;;;;;;;;4956021;28;20399;-72
2021/12/03 02:26:32;;;;;;;8.55;2.72;;;;;;;;;;4956085;28;20372;-73
2021/12/03 02:28:58;;;;;;;8.40;2.40;;;;;;;;;;4955613;28;20151;-72
2021/12/03 02:31:25;;;;;;;7.53;2.83;;;;;;;;;;4955982;28;20110;-72
2021/12/03 02:33:52;;;;;;;9.43;2.75;;;;;;;;;;4955825;28;20023;-62
2021/12/03 02:36:18;;;;;;;8.20;2.90;;;;;;;;;;4955660;28;20468;-73
2021/12/03 02:38:44;;;;;;;7.95;2.90;;;;;;;;;;4955616;28;20042;-73
2021/12/03 02:41:11;;;;;;;9.35;3.08;;;;;;;;;;4955707;28;20031;-65
2021/12/03 02:43:37;;;;;;;7.50;3.20;;;;;;;;;;4955801;28;20031;-64
2021/12/03 02:46:03;;;;;;;6.55;3.25;;;;;;;;;;4955456;28;20102;-67
2021/12/03 02:48:31;;;;;;;9.50;3.95;;;;;;;;;;4955484;28;20031;-66
2021/12/03 02:50:57;;;;;;;10.73;6.32;;;;;;;;;;4955165;28;20122;-63
2021/12/03 02:53:23;;;;;;;10.82;7.35;;;;;;;;;;4955429;28;20023;-66
2021/12/03 02:55:49;;;;;;;13.25;8.38;;;;;;;;;;4955586;28;20114;-67
2021/12/03 02:58:15;;;;;;;11.50;8.20;;;;;;;;;;4955458;28;20420;-73
2021/12/03 03:00:42;;;;;;;13.85;9.48;;;;;;;;;;4955552;28;20070;-72
2021/12/03 03:03:08;;;;;;;14.48;10.15;;;;;;;;;;4956954;28;20081;-67
2021/12/03 03:05:35;;;;;;;16.98;11.25;;;;;;;;;;4956694;28;20035;-74
2021/12/03 03:08:02;;;;;;;18.58;11.13;;;;;;;;;;4954988;28;20534;-63
2021/12/03 03:10:31;;;;;;;15.55;10.65;;;;;;;;;;4954309;28;20087;-72
2021/12/03 03:12:57;;;;;;;16.90;11.57;;;;;;;;;;4954928;28;20078;-75
2021/12/03 03:15:24;;;;;;;16.70;12.55;;;;;;;;;;4954917;28;20030;-71
2021/12/03 03:17:50;;;;;;;17.90;13.05;;;;;;;;;;4955287;28;20074;-67
2021/12/03 03:20:16;;;;;;;18.55;13.35;;;;;;;;;;4954790;28;20177;-74
2021/12/03 03:22:43;;;;;;;17.85;12.40;;;;;;;;;;4954599;28;20039;-72
2021/12/03 03:25:10;;;;;;;15.80;11.52;;;;;;;;;;4954709;28;20479;-63
2021/12/03 03:27:36;;;;;;;16.20;11.85;;;;;;;;;;4954992;28;20054;-72
2021/12/03 03:30:04;;;;;;;15.48;12.02;;;;;;;;;;4954759;28;20023;-72
2021/12/03 03:32:30;;;;;;;13.20;10.00;;;;;;;;;;4954525;28;20028;-65
2021/12/03 03:34:56;;;;;;;12.90;9.35;;;;;;;;;;4953305;28;20043;-73
2021/12/03 03:37:22;;;;;;;10.93;8.63;;;;;;;;;;4954606;28;20027;-74
2021/12/03 03:39:48;;;;;;;9.25;8.27;;;;;;;;;;4954662;28;20035;-70
2021/12/03 03:42:15;;;;;;;10.70;9.05;;;;;;;;;;4954517;28;20450;-73
2021/12/03 03:44:42;;;;;;;9.90;8.90;;;;;;;;;;4954526;28;20395;-73
2021/12/03 03:47:09;;;;;;;12.95;9.73;;;;;;;;;;4954596;28;20031;-73
2021/12/03 03:49:35;;;;;;;9.80;8.68;;;;;;;;;;4954569;28;20082;-73
2021/12/03 03:52:02;;;;;;;10.35;9.02;;;;;;;;;;4954401;28;20039;-73
2021/12/03 03:54:28;;;;;;;10.90;9.60;;;;;;;;;;4954491;28;20066;-73
2021/12/03 03:56:55;;;;;;;9.98;8.77;;;;;;;;;;4954494;28;20027;-73
2021/12/03 03:59:22;;;;;;;12.52;9.68;;;;;;;;;;4954263;28;20027;-64
2021/12/03 04:01:50;;;;;;;11.68;10.10;;;;;;;;;;4954196;28;20399;-65
2021/12/03 04:04:16;;;;;;;11.70;9.45;;;;;;;;;;4954242;28;20114;-73
2021/12/03 04:06:42;;;;;;;14.07;9.85;;;;;;;;;;4953934;28;20027;-73
2021/12/03 04:09:09;;;;;;;11.73;9.88;;;;;;;;;;4954036;28;20038;-63
2021/12/03 04:11:36;;;;;;;14.43;10.30;;;;;;;;;;4953551;28;20031;-73
2021/12/03 04:14:02;;;;;;;13.52;10.27;;;;;;;;;;4954086;28;20031;-68
2021/12/03 04:16:28;;;;;;;12.23;10.48;;;;;;;;;;4954097;28;20031;-65
2021/12/03 04:18:55;;;;;;;11.55;9.48;;;;;;;;;;4953953;28;20038;-70
2021/12/03 04:21:22;;;;;;;10.38;8.80;;;;;;;;;;4953469;28;20078;-64
2021/12/03 04:23:48;;;;;;;11.80;9.52;;;;;;;;;;4953844;28;20015;-64
2021/12/03 04:26:14;;;;;;;13.07;9.30;;;;;;;;;;4953762;28;20035;-73
2021/12/03 04:28:40;;;;;;;10.38;8.98;;;;;;;;;;4953676;28;20384;-67
2021/12/03 04:31:06;;;;;;;8.75;7.85;;;;;;;;;;4953650;28;20031;-74
2021/12/03 04:33:32;;;;;;;9.25;8.07;;;;;;;;;;4953243;28;20027;-74
2021/12/03 04:35:58;;;;;;;10.45;8.95;;;;;;;;;;4953356;28;20132;-64
2021/12/03 04:38:24;;;;;;;11.35;8.57;;;;;;;;;;4953568;28;20081;-73
2021/12/03 04:40:51;;;;;;;8.98;7.78;;;;;;;;;;4953319;28;20025;-62
2021/12/03 04:43:17;;;;;;;10.07;8.13;;;;;;;;;;4953373;28;20027;-73
2021/12/03 04:45:43;;;;;;;8.63;7.10;;;;;;;;;;4952878;28;20510;-70
2021/12/03 04:48:10;;;;;;;7.70;6.90;;;;;;;;;;4951814;28;20368;-64
2021/12/03 04:50:38;;;;;;;9.35;7.32;;;;;;;;;;4951822;28;20506;-65
2021/12/03 04:53:05;;;;;;;7.93;6.75;;;;;;;;;;4952852;28;20395;-64
2021/12/03 04:55:31;;;;;;;7.57;6.40;;;;;;;;;;4953279;28;20035;-71
2021/12/03 04:57:57;;;;;;;5.43;4.85;;;;;;;;;;4952883;28;20499;-63
2021/12/03 05:00:25;;;;;;;5.80;5.20;;;;;;;;;;4953164;28;20039;-72
2021/12/03 05:02:53;;;;;;;6.28;4.95;;;;;;;;;;4953196;28;20519;-73
2021/12/03 05:05:19;;;;;;;6.43;4.30;;;;;;;;;;4952947;28;20049;-74
2021/12/03 05:07:57;;;;;;;5.03;3.90;;;;;;;;;;4953071;28;20031;-73
2021/12/03 05:10:24;;;;;;;5.03;4.07;;;;;;;;;;4953237;28;20041;-62
2021/12/03 05:12:51;;;;;;;7.88;5.80;;;;;;;;;;4953043;28;20020;-73
2021/12/03 05:15:18;;;;;;;6.65;5.65;;;;;;;;;;4953055;28;20039;-76
2021/12/03 05:17:44;;;;;;;4.40;4.00;;;;;;;;;;4952972;28;20395;-75
2021/12/03 05:20:10;;;;;;;5.88;4.28;;;;;;;;;;4953076;28;20047;-72
2021/12/03 05:22:36;;;;;;;5.38;4.70;;;;;;;;;;4952611;28;20102;-64
2021/12/03 05:25:03;;;;;;;5.15;4.45;;;;;;;;;;4953177;28;20043;-74
2021/12/03 05:27:29;;;;;;;5.90;4.32;;;;;;;;;;4953017;28;20117;-74
2021/12/03 05:29:55;;;;;;;5.30;3.85;;;;;;;;;;4953228;28;20103;-63
2021/12/03 05:32:21;;;;;;;5.05;4.55;;;;;;;;;;4953009;28;20035;-72
2021/12/03 05:34:47;;;;;;;5.25;4.22;;;;;;;;;;4953120;28;20019;-73
2021/12/03 05:37:13;;;;;;;4.63;3.92;;;;;;;;;;4952917;28;20027;-63
2021/12/03 05:39:39;;;;;;;8.45;5.10;;;;;;;;;;4952952;28;20464;-73
2021/12/03 05:42:06;;;;;;;5.50;4.72;;;;;;;;;;4953072;28;20031;-65
2021/12/03 05:44:32;;;;;;;3.75;3.13;;;;;;;;;;4952556;28;20041;-72
2021/12/03 05:46:59;;;;;;;3.20;2.50;;;;;;;;;;4952771;28;20023;-70
2021/12/03 05:49:25;;;;;;;4.63;2.63;;;;;;;;;;4952638;28;20028;-74
2021/12/03 05:51:51;;;;;;;4.47;2.55;;;;;;;;;;4952790;28;20281;-72
2021/12/03 05:54:18;;;;;;;3.83;2.30;;;;;;;;;;4953064;28;20109;-74
2021/12/03 05:56:44;;;;;;;4.10;2.35;;;;;;;;;;4951979;28;20463;-64
2021/12/03 05:59:11;;;;;;;5.40;3.03;;;;;;;;;;4956484;28;20423;-64
2021/12/03 06:01:37;;;;;;;7.57;4.70;;;;;;;;;;4956625;28;20030;-70
2021/12/03 06:04:03;;;;;;;4.95;3.00;;;;;;;;;;4955993;28;20031;-67
2021/12/03 06:06:29;;;;;;;6.40;3.53;;;;;;;;;;4956199;28;20380;-70
2021/12/03 06:08:57;;;;;;;5.63;3.08;;;;;;;;;;4956203;28;20094;-64
2021/12/03 06:11:24;;;;;;;7.03;4.53;;;;;;;;;;4956083;28;20038;-73
2021/12/03 06:13:50;;;;;;;5.38;3.17;;;;;;;;;;4956178;28;20023;-65
2021/12/03 06:16:16;;;;;;;6.05;3.53;;;;;;;;;;4956038;28;20118;-73
2021/12/03 06:18:42;;;;;;;6.63;3.58;;;;;;;;;;4955898;28;20027;-75
2021/12/03 06:21:09;;;;;;;7.72;3.65;;;;;;;;;;4955816;28;20061;-74
2021/12/03 06:23:35;;;;;;;6.32;3.40;;;;;;;;;;4954594;28;20440;-73
2021/12/03 06:26:01;;;;;;;4.35;2.58;;;;;;;;;;4955788;28;20043;-72
2021/12/03 06:28:29;;;;;;;5.00;2.85;;;;;;;;;;4956198;28;20395;-70
2021/12/03 06:30:55;;;;;;;5.82;2.55;;;;;;;;;;4971866;28;20065;-65
2021/12/03 06:33:21;;;;;;;7.53;3.70;;;;;;;;;;4966408;28;20031;-69
2021/12/03 06:35:48;;;;;;;3.60;2.20;;;;;;;;;;4965396;28;20033;-71
2021/12/03 06:38:14;;;;;;;4.43;2.70;;;;;;;;;;4963337;28;20019;-70
2021/12/03 06:40:41;;;;;;;3.13;1.80;;;;;;;;;;4964030;28;20098;-64
2021/12/03 06:43:07;;;;;;;3.42;2.08;;;;;;;;;;4965069;28;20034;-71
2021/12/03 06:45:33;;;;;;;4.75;2.60;;;;;;;;;;4969603;28;20042;-69
2021/12/03 06:47:59;;;;;;;4.82;2.25;;;;;;;;;;4961506;28;20031;-70
2021/12/03 06:50:25;;;;;;;5.22;2.80;;;;;;;;;;4964088;28;20053;-70
2021/12/03 06:53:04;;;;;;;4.72;2.50;;;;;;;;;;4966029;28;20026;-68
2021/12/03 06:56:08;;;;;;;4.57;2.20;;;;;;;;;;4964603;28;20031;-70
2021/12/03 06:58:23;;;;;;;5.57;3.75;;;;;;;;;;4963278;28;20034;-67
2021/12/03 07:00:51;;;;;;;6.60;2.92;;;;;;;;;;4964270;28;20027;-64
2021/12/03 07:03:17;;;;;;;10.75;5.03;;;;;;;;;;4963060;28;20077;-71
2021/12/03 07:05:43;;;;;;;9.00;4.20;;;;;;;;;;4963486;28;20046;-75
2021/12/03 07:08:13;;;;;;;9.98;4.32;;;;;;;;;;4964007;28;20039;-73
2021/12/03 07:10:39;;;;;;;9.98;3.67;;;;;;;;;;4963134;28;20039;-78
2021/12/03 07:13:06;;;;;;;22.15;11.40;;;;;;;;;;4963322;28;20117;-73
2021/12/03 07:15:32;;;;;;;15.77;7.28;;;;;;;;;;4964890;28;20046;-72
2021/12/03 07:17:58;;;;;;;17.58;7.95;;;;;;;;;;4964481;28;20037;-73
2021/12/03 07:20:25;;;;;;;18.50;8.23;;;;;;;;;;4966404;28;20101;-73
2021/12/03 07:22:52;;;;;;;18.02;10.18;;;;;;;;;;4971879;28;20133;-71
2021/12/03 07:25:18;;;;;;;11.98;4.63;;;;;;;;;;4963407;28;20077;-69
2021/12/03 07:27:44;;;;;;;8.18;4.15;;;;;;;;;;4961519;28;20019;-73
2021/12/03 07:30:11;;;;;;;4.97;2.65;;;;;;;;;;4953879;28;20158;-76
2021/12/03 07:32:38;;;;;;;4.93;2.47;;;;;;;;;;4962336;28;20031;-71
2021/12/03 07:35:05;;;;;;;5.18;2.75;;;;;;;;;;4954524;28;20501;-73
2021/12/03 07:37:31;;;;;;;6.72;2.53;;;;;;;;;;4956966;28;20142;-70
2021/12/03 07:40:00;;;;;;;5.10;2.63;;;;;;;;;;4963250;28;20031;-72
2021/12/03 07:42:26;;;;;;;7.70;2.85;;;;;;;;;;4961953;28;20027;-72
2021/12/03 07:44:52;;;;;;;8.25;2.72;;;;;;;;;;4962741;28;20414;-70
2021/12/03 07:47:18;;;;;;;4.70;2.00;;;;;;;;;;4963244;28;20122;-68
2021/12/03 07:49:46;;;;;;;4.07;1.60;;;;;;;;;;4966431;28;20059;-72
2021/12/03 07:52:14;;;;;;;2.50;1.25;;;;;;;;;;4961134;28;20027;-73
2021/12/03 07:54:41;;;;;;;3.88;1.30;;;;;;;;;;4964102;28;20042;-73
2021/12/03 07:57:07;;;;;;;4.25;1.80;;;;;;;;;;4962793;28;20030;-70
2021/12/03 07:59:33;;;;;;;3.17;1.60;;;;;;;;;;4963144;28;20485;-72
2021/12/03 08:01:59;;;;;;;4.47;1.83;;;;;;;;;;4961347;28;20037;-66
2021/12/03 08:04:25;;;;;;;3.90;1.73;;;;;;;;;;4962740;28;20482;-66
2021/12/03 08:06:53;;;;;;;3.70;1.80;;;;;;;;;;4963129;28;20383;-64
2021/12/03 08:09:20;;;;;;;4.72;1.70;;;;;;;;;;4961220;28;20054;-72
2021/12/03 08:11:46;;;;;;;3.95;1.90;;;;;;;;;;4962442;28;20035;-65
2021/12/03 08:14:12;;;;;;;3.45;1.90;;;;;;;;;;4962356;28;20078;-74
2021/12/03 08:16:39;;;;;;;4.32;2.65;;;;;;;;;;4960943;28;20424;-68
2021/12/03 08:19:05;;;;;;;4.28;2.58;;;;;;;;;;4962486;28;20478;-65
2021/12/03 08:21:31;;;;;;;3.60;2.20;;;;;;;;;;4961462;28;20082;-70
2021/12/03 08:23:59;;;;;;;4.50;2.90;;;;;;;;;;4960694;28;20129;-69
2021/12/03 08:26:26;;;;;;;4.93;3.15;;;;;;;;;;4962212;28;20385;-66
2021/12/03 08:28:52;;;;;;;5.18;2.90;;;;;;;;;;4962438;28;20043;-69
2021/12/03 08:31:18;;;;;;;5.82;3.45;;;;;;;;;;4959782;28;20078;-68
2021/12/03 08:33:45;;;;;;;7.65;3.72;;;;;;;;;;4962290;28;20029;-67
2021/12/03 08:36:11;;;;;;;5.25;3.22;;;;;;;;;;4962349;28;20031;-74
2021/12/03 08:38:37;;;;;;;8.68;5.00;;;;;;;;;;4961074;28;20490;-72
2021/12/03 08:41:04;;;;;;;11.93;6.32;;;;;;;;;;4962414;28;20023;-66
2021/12/03 08:43:30;;;;;;;6.10;4.15;;;;;;;;;;4961748;28;20490;-63
2021/12/03 08:45:57;;;;;;;5.40;3.78;;;;;;;;;;4960497;28;20055;-67
2021/12/03 08:48:24;;;;;;;7.78;4.40;;;;;;;;;;4961918;28;20030;-69
2021/12/03 08:51:07;;;;;;;7.35;4.50;;;;;;;;;;4961687;28;20487;-68
2021/12/03 08:56:18;;;;;;;6.97;4.57;;;;;;;;;;4962706;28;20045;-68
2021/12/03 08:58:44;;;;;;;5.45;4.18;;;;;;;;;;4960357;28;20027;-67
2021/12/03 09:01:13;;;;;;;6.25;4.68;;;;;;;;;;4959502;28;20097;-70
2021/12/03 09:03:39;;;;;;;6.00;4.78;;;;;;;;;;4960216;28;20023;-67
2021/12/03 09:06:05;;;;;;;6.07;4.57;;;;;;;;;;4966530;28;20094;-65
2021/12/03 09:08:31;;;;;;;7.57;5.35;;;;;;;;;;4972122;28;20058;-64
2021/12/03 09:10:57;;;;;;;22.50;9.80;;;;;;;;;;4963116;28;20031;-71
2021/12/03 09:13:23;;;;;;;30.95;13.38;;;;;;;;;;4960938;28;20031;-70
2021/12/03 09:16:06;;;;;;;22.25;9.80;;;;;;;;;;4961155;28;20474;-68
2021/12/03 09:18:40;;;;;;;23.95;11.20;;;;;;;;;;4966039;28;20090;-68
2021/12/03 09:21:09;;;;;;;25.27;12.15;;;;;;;;;;4957788;28;20039;-69
2021/12/03 09:26:22;;;;;;;20.75;9.80;;;;;;;;;;4959502;28;20056;-68
2021/12/03 09:28:50;;;;;;;23.58;11.20;;;;;;;;;;4971655;28;20073;-70
2021/12/03 09:31:17;;;;;;;19.70;9.50;;;;;;;;;;4992304;28;20508;-68
2021/12/03 09:33:46;;;;;;;14.23;7.82;;;;;;;;;;4983378;28;20033;-71
2021/12/03 09:36:13;;;;;;;16.85;8.30;;;;;;;;;;4967298;28;20037;-70
2021/12/03 09:38:40;;;;;;;16.67;8.30;;;;;;;;;;4965731;28;20031;-66
2021/12/03 09:41:10;;;;;;;19.02;8.40;;;;;;;;;;4964866;28;20038;-67
2021/12/03 09:43:39;;;;;;;17.42;8.30;;;;;;;;;;4965367;28;20109;-70
2021/12/03 09:46:13;;;;;;;20.80;9.20;;;;;;;;;;4959997;28;20043;-68
2021/12/03 09:48:53;;;;;;;14.45;7.10;;;;;;;;;;4958499;28;20052;-69
2021/12/03 09:51:20;;;;;;;12.07;7.18;;;;;;;;;;4971113;28;20042;-67
2021/12/03 09:54:15;;;;;;;12.82;7.13;;;;;;;;;;4975522;28;20023;-67
2021/12/03 09:56:38;;;;;;;14.90;7.70;;;;;;;;;;4975423;28;20513;-71
2021/12/03 10:01:54;;;;;;;11.43;7.03;;;;;;;;;;4975083;28;20026;-69
2021/12/03 10:12:26;;;;;;;13.38;7.20;;;;;;;;;;4975024;28;20035;-68
2021/12/03 10:15:01;;;;;;;9.63;6.22;;;;;;;;;;4975029;28;20018;-64
2021/12/03 10:20:12;;;;;;;11.43;6.72;;;;;;;;;;4974803;28;20034;-64
2021/12/03 10:28:30;;;;;;;8.00;5.47;;;;;;;;;;4979463;28;20078;-66
2021/12/03 10:42:02;;;;;;;18.50;9.80;;;;;;;;;;4973890;28;20499;-66
2021/12/03 11:30:06;;;;;;;16.48;10.88;;;;;;;;;;4894852;29;20063;-65
2021/12/03 11:44:20;;;;;;;16.60;11.77;;;;;;;;;;4971475;28;20530;-64
2021/12/03 13:02:09;;;;;;;29.88;20.83;;;;;;;;;;4894105;29;20047;-63
2021/12/03 13:15:33;;;;;;;29.08;20.48;;;;;;;;;;4874495;29;20118;-65
2021/12/03 14:37:42;;;;;;;17.80;11.18;;;;;;;;;;4933127;29;20476;-67
2021/12/03 14:56:06;;;;;;;15.50;9.63;;;;;;;;;;4994289;28;20576;-66
2021/12/03 14:58:45;;;;;;;19.92;12.23;;;;;;;;;;4994042;28;20026;-67
2021/12/03 15:08:41;;;;;;;29.48;17.92;;;;;;;;;;4993865;28;20526;-67
2021/12/03 15:32:06;;;;;;;45.35;28.63;;;;;;;;;;4974202;28;20039;-64
2021/12/03 15:39:40;;;;;;;45.20;28.05;;;;;;;;;;4973683;28;20425;-63
2021/12/03 16:03:29;;;;;;;23.73;14.50;;;;;;;;;;4973553;28;20086;-61
2021/12/03 16:12:08;;;;;;;17.58;11.85;;;;;;;;;;4973097;28;20086;-66
2021/12/03 16:17:26;;;;;;;18.17;10.80;;;;;;;;;;4972945;28;20038;-65
2021/12/03 16:54:14;;;;;;;29.88;17.20;;;;;;;;;;4972670;28;20045;-60
2021/12/03 16:56:47;;;;;;;35.75;20.98;;;;;;;;;;4966641;28;20186;-67
2021/12/03 16:59:13;;;;;;;;;;;;;;;;;;4961697;28;20534;-62
2021/12/03 17:15:21;;;;;;;51.20;29.67;;;;;;;;;;4950621;28;20077;-61
2021/12/03 17:52:24;;;;;;;32.97;20.25;;;;;;;;;;4973025;28;20057;-63
2021/12/03 17:55:29;;;;;;;32.38;20.52;;;;;;;;;;4975649;28;20102;-63
2021/12/03 18:00:12;;;;;;;34.13;21.17;;;;;;;;;;4974312;28;20027;-64
2021/12/03 18:02:43;;;;;;;31.73;19.45;;;;;;;;;;4968887;28;20031;-65
2021/12/03 18:55:54;;;;;;;61.60;33.63;;;;;;;;;;4973882;28;20046;-61
2021/12/03 18:58:24;;;;;;;50.10;27.90;;;;;;;;;;4971227;28;20437;-62
2021/12/03 19:00:51;;;;;;;36.92;20.92;;;;;;;;;;4974284;28;20092;-65
2021/12/03 19:06:18;;;;;;;;;;;;;;;;;;4973810;28;20581;-63
2021/12/03 19:08:44;;;;;;;55.08;27.83;;;;;;;;;;4965168;28;19918;-65
2021/12/03 19:13:52;;;;;;;53.97;31.05;;;;;;;;;;4973227;28;20027;-67
2021/12/03 19:16:22;;;;;;;47.95;27.83;;;;;;;;;;4973813;28;20077;-64
2021/12/03 19:18:50;;;;;;;57.88;31.77;;;;;;;;;;4973778;28;20031;-62
2021/12/03 19:21:21;;;;;;;48.00;24.90;;;;;;;;;;4968242;28;20046;-65
2021/12/03 19:23:49;;;;;;;47.90;26.48;;;;;;;;;;4964049;28;20035;-63
2021/12/03 19:26:15;;;;;;;42.92;24.95;;;;;;;;;;4973675;28;20363;-65
2021/12/03 19:28:41;;;;;;;44.38;25.80;;;;;;;;;;4973346;28;20033;-65
2021/12/03 19:31:07;;;;;;;49.13;26.27;;;;;;;;;;4967895;28;20062;-67
2021/12/03 19:33:35;;;;;;;42.25;24.42;;;;;;;;;;4966989;28;20128;-64
2021/12/03 19:36:01;;;;;;;48.13;26.08;;;;;;;;;;4964438;28;20161;-65
2021/12/03 19:38:29;;;;;;;44.15;25.15;;;;;;;;;;4966820;28;20523;-66
2021/12/03 19:41:00;;;;;;;41.10;23.30;;;;;;;;;;4965237;28;20026;-63
2021/12/03 19:43:39;;;;;;;37.80;21.63;;;;;;;;;;4973560;28;20030;-64
2021/12/03 19:46:06;;;;;;;40.72;22.45;;;;;;;;;;4956176;28;20031;-64
2021/12/03 19:48:44;;;;;;;44.60;22.40;;;;;;;;;;4954062;28;20027;-64
2021/12/03 19:51:15;;;;;;;37.17;22.17;;;;;;;;;;4953008;28;20051;-63
2021/12/03 19:53:55;;;;;;;47.47;24.95;;;;;;;;;;4954163;28;20027;-65
2021/12/03 19:56:24;;;;;;;38.78;20.75;;;;;;;;;;4954127;28;20027;-69
2021/12/03 19:58:52;;;;;;;42.65;22.02;;;;;;;;;;4951585;28;20023;-66
2021/12/03 20:01:18;;;;;;;63.63;31.70;;;;;;;;;;4951079;28;20034;-63
2021/12/03 20:03:45;;;;;;;44.67;24.33;;;;;;;;;;4953660;28;20102;-63
2021/12/03 20:06:12;;;;;;;50.60;25.63;;;;;;;;;;4953646;28;20141;-72
2021/12/03 20:08:38;;;;;;;35.33;21.00;;;;;;;;;;4953441;28;20023;-64
2021/12/03 20:11:08;;;;;;;46.55;24.52;;;;;;;;;;4953662;28;20471;-63
2021/12/03 20:13:34;;;;;;;39.63;22.58;;;;;;;;;;4953627;28;20024;-63
2021/12/03 20:18:50;;;;;;;47.05;27.75;;;;;;;;;;4953615;29;20058;-63
2021/12/03 20:21:17;;;;;;;49.88;28.02;;;;;;;;;;4953155;28;20051;-63
2021/12/03 20:31:29;;;;;;;62.55;31.55;;;;;;;;;;4953231;28;20447;-63
2021/12/03 20:39:40;;;;;;;50.08;27.92;;;;;;;;;;4951033;28;20042;-69
2021/12/03 20:42:18;;;;;;;68.53;35.22;;;;;;;;;;4950796;29;20138;-66
2021/12/03 20:50:07;;;;;;;57.80;29.42;;;;;;;;;;4950289;29;20032;-62
2021/12/03 21:11:07;;;;;;;36.47;21.15;;;;;;;;;;4893117;29;20088;-67
2021/12/03 21:13:36;;;;;;;45.45;24.50;;;;;;;;;;4890109;29;20040;-64
2021/12/03 21:16:40;;;;;;;48.10;26.30;;;;;;;;;;4902985;29;20127;-66
2021/12/03 21:23:56;;;;;;;51.67;28.80;;;;;;;;;;4918821;29;20032;-64
2021/12/03 21:26:24;;;;;;;27.95;16.73;;;;;;;;;;4923791;29;20071;-63
2021/12/03 21:32:18;;;;;;;47.53;24.30;;;;;;;;;;4917655;29;20029;-64
2021/12/03 21:42:11;;;;;;;40.38;22.33;;;;;;;;;;4939254;28;20118;-63
2021/12/03 21:44:37;;;;;;;34.95;19.90;;;;;;;;;;4971846;28;20027;-63
2021/12/03 21:47:03;;;;;;;32.00;19.13;;;;;;;;;;4965916;28;20541;-63
2021/12/03 21:49:29;;;;;;;33.58;19.50;;;;;;;;;;4971900;28;20669;-63
2021/12/03 21:51:56;;;;;;;41.38;22.67;;;;;;;;;;4971359;28;20763;-62
2021/12/03 21:54:22;;;;;;;35.90;21.05;;;;;;;;;;4971844;28;20729;-63
2021/12/03 21:56:48;;;;;;;39.65;20.88;;;;;;;;;;4971803;28;20122;-65
2021/12/03 21:59:19;;;;;;;34.22;20.65;;;;;;;;;;4971557;28;20065;-64
2021/12/03 22:01:45;;;;;;;37.83;20.52;;;;;;;;;;4971493;28;20592;-64
2021/12/03 22:04:11;;;;;;;33.35;18.05;;;;;;;;;;4971757;28;20109;-64
2021/12/03 22:06:38;;;;;;;34.47;20.00;;;;;;;;;;4971365;28;20386;-64
2021/12/03 22:09:04;;;;;;;33.63;19.23;;;;;;;;;;4971253;28;20043;-66
2021/12/03 22:11:30;;;;;;;33.42;19.17;;;;;;;;;;4963603;28;20039;-64
2021/12/03 22:13:57;;;;;;;38.83;21.73;;;;;;;;;;4962015;28;20062;-63
2021/12/03 22:16:23;;;;;;;38.83;20.42;;;;;;;;;;4960072;28;20480;-63
2021/12/03 22:18:50;;;;;;;33.90;18.65;;;;;;;;;;4961651;28;20023;-66
2021/12/03 22:21:18;;;;;;;33.92;18.10;;;;;;;;;;4958312;28;20081;-64
2021/12/03 22:23:45;;;;;;;32.42;18.70;;;;;;;;;;4962954;28;20035;-66
2021/12/03 22:26:12;;;;;;;34.40;18.85;;;;;;;;;;4965286;28;20070;-62
2021/12/03 22:28:38;;;;;;;35.97;18.65;;;;;;;;;;4972421;28;20027;-61
2021/12/03 22:31:04;;;;;;;35.40;19.30;;;;;;;;;;4964967;28;20105;-61
2021/12/03 22:33:31;;;;;;;33.33;18.20;;;;;;;;;;4961359;28;20024;-64
2021/12/03 22:35:58;;;;;;;35.00;19.13;;;;;;;;;;4965091;28;20031;-66
2021/12/03 22:38:24;;;;;;;47.70;24.63;;;;;;;;;;4961714;28;20098;-65
2021/12/03 22:40:50;;;;;;;56.72;29.05;;;;;;;;;;4964216;28;20531;-63
2021/12/03 22:43:16;;;;;;;40.17;21.23;;;;;;;;;;4963640;28;20120;-63
2021/12/03 22:48:37;;;;;;;37.30;19.98;;;;;;;;;;4972253;28;20058;-63
2021/12/03 22:53:38;;;;;;;45.65;21.15;;;;;;;;;;4972297;28;20482;-62
2021/12/03 22:56:05;;;;;;;65.07;26.95;;;;;;;;;;4972221;28;20414;-65
2021/12/03 22:58:31;;;;;;;52.75;26.58;;;;;;;;;;4971742;28;20459;-64
2021/12/03 23:00:57;;;;;;;47.22;25.55;;;;;;;;;;4971838;28;20445;-64
2021/12/03 23:03:24;;;;;;;57.22;30.00;;;;;;;;;;4971672;28;20034;-63
2021/12/03 23:05:51;;;;;;;39.92;21.95;;;;;;;;;;4955581;28;20082;-64
2021/12/03 23:08:17;;;;;;;46.25;24.13;;;;;;;;;;4971711;28;20755;-63
2021/12/03 23:10:44;;;;;;;44.72;23.52;;;;;;;;;;4972190;28;20259;-63
2021/12/03 23:13:10;;;;;;;34.97;18.05;;;;;;;;;;4971500;28;20487;-65
2021/12/03 23:15:36;;;;;;;62.33;28.25;;;;;;;;;;4971248;28;20066;-64
2021/12/03 23:18:03;;;;;;;57.45;30.42;;;;;;;;;;4971461;28;20105;-64
2021/12/03 23:20:29;;;;;;;43.15;23.15;;;;;;;;;;4971578;28;20039;-64
2021/12/03 23:22:55;;;;;;;42.25;22.77;;;;;;;;;;4971134;28;20062;-64
2021/12/03 23:25:22;;;;;;;46.45;25.65;;;;;;;;;;4972152;28;20034;-62
2021/12/03 23:27:48;;;;;;;56.50;29.65;;;;;;;;;;4974134;28;20424;-62
2021/12/03 23:30:14;;;;;;;66.05;32.80;;;;;;;;;;4974246;28;20030;-63
2021/12/03 23:32:41;;;;;;;62.10;30.95;;;;;;;;;;4973941;28;20034;-63
2021/12/03 23:35:08;;;;;;;47.17;25.13;;;;;;;;;;4973886;28;20483;-64